HORACE LAKE: From 01/21/2019 19:00 to 03/23/2019 04:00

Date LAKE ELEVATION [FT] PRECIPITATION INCREMENT [IN] AIR TEMPERATURE [F] RELATIVE HUMIDITY [%] RELEASE [CFS]
03/22/2019 22:00 651.84 0.00 35.4 83.0 --
03/22/2019 21:00 651.81 0.00 36.7 75.0 --
03/22/2019 20:00 651.83 0.00 37.0 75.0 --
03/22/2019 19:00 651.83 0.00 37.0 75.0 --
03/22/2019 18:00 651.81 0.00 37.4 77.0 --
03/22/2019 17:00 651.81 0.00 38.1 81.0 --
03/22/2019 16:00 651.78 0.00 37.4 90.0 --
03/22/2019 15:00 651.80 0.02 36.2 97.0 --
03/22/2019 14:00 651.78 0.02 35.8 100.0 --
03/22/2019 13:00 651.76 0.02 35.2 100.0 --
03/22/2019 12:00 651.76 0.04 34.2 100.0 --
03/22/2019 11:00 651.74 0.02 33.4 100.0 --
03/22/2019 10:00 651.73 0.01 33.1 100.0 --
03/22/2019 09:00 651.74 0.03 33.3 100.0 --
03/22/2019 08:00 651.72 0.01 32.5 100.0 --
03/22/2019 07:00 651.73 0.00 32.8 100.0 --
03/22/2019 06:00 651.73 0.01 32.8 100.0 --
03/22/2019 05:00 651.73 0.03 33.5 100.0 --
03/22/2019 04:00 651.72 0.00 34.1 100.0 --
03/22/2019 03:00 651.70 0.00 34.6 92.0 --
03/22/2019 02:00 651.70 0.00 35.2 87.0 --
03/22/2019 01:00 651.71 0.00 35.9 82.0 --
03/22/2019 00:00 651.71 0.00 36.7 75.0 --
03/21/2019 23:00 651.70 0.00 35.8 73.0 --
03/21/2019 22:00 651.69 0.00 37.5 68.0 --
03/21/2019 21:00 651.70 0.00 37.1 76.0 --
03/21/2019 20:00 651.70 0.00 37.1 76.0 --
03/21/2019 19:00 651.70 0.00 40.1 68.0 --
03/21/2019 18:00 651.70 0.00 44.0 56.0 --
03/21/2019 17:00 651.71 0.00 44.7 52.0 --
03/21/2019 16:00 651.70 0.00 46.4 46.0 --
03/21/2019 15:00 651.70 0.00 46.4 46.0 --
03/21/2019 14:00 651.71 0.00 45.5 42.0 --
03/21/2019 13:00 651.70 0.00 46.3 32.0 --
03/21/2019 12:00 651.71 0.00 44.7 43.0 --
03/21/2019 11:00 651.71 0.00 40.7 51.0 --
03/21/2019 10:00 651.71 0.00 40.7 51.0 --
03/21/2019 09:00 651.71 0.00 35.8 71.0 --
03/21/2019 08:00 651.72 0.00 30.7 86.0 --
03/21/2019 07:00 651.72 0.00 29.1 87.0 --
03/21/2019 06:00 651.72 0.00 30.2 79.0 --
03/21/2019 05:00 651.71 0.00 29.8 78.0 --
03/21/2019 04:00 651.72 0.00 34.2 66.0 --
03/21/2019 03:00 651.72 0.00 37.6 56.0 --
03/21/2019 02:00 651.72 0.00 37.5 52.0 --
03/21/2019 01:00 651.70 0.00 38.8 45.0 --
03/21/2019 00:00 651.72 0.00 39.1 46.0 --
03/20/2019 23:00 651.71 0.00 29.3 77.0 --
03/20/2019 22:00 651.71 0.00 29.3 77.0 --
03/20/2019 21:00 651.73 0.00 31.4 71.0 --
03/20/2019 20:00 651.73 0.00 38.0 50.0 --
03/20/2019 19:00 651.73 0.00 38.0 50.0 --
03/20/2019 18:00 651.73 0.00 47.6 29.0 --
03/20/2019 17:00 651.75 0.00 47.5 27.0 --
03/20/2019 16:00 651.72 0.00 46.4 28.0 --
03/20/2019 15:00 651.73 0.00 44.2 29.0 --
03/20/2019 14:00 651.73 0.00 44.2 29.0 --
03/20/2019 13:00 651.73 0.00 42.8 35.0 --
03/20/2019 12:00 651.75 0.00 40.0 41.0 --
03/20/2019 11:00 651.74 0.00 31.2 56.0 --
03/20/2019 10:00 651.76 0.00 22.1 76.0 --
03/20/2019 09:00 651.76 0.00 16.6 91.0 --
03/20/2019 08:00 651.76 0.00 16.3 91.0 --
03/20/2019 07:00 651.76 0.00 16.3 91.0 --
03/20/2019 06:00 651.77 0.00 17.0 89.0 --
03/20/2019 05:00 651.78 0.00 17.6 84.0 --
03/20/2019 04:00 651.78 0.00 17.6 84.0 --
03/20/2019 03:00 651.78 0.00 19.6 80.0 --
03/20/2019 02:00 651.79 0.00 21.8 72.0 --
03/20/2019 01:00 651.80 0.00 23.1 69.0 --
03/20/2019 00:00 651.81 0.00 24.3 65.0 --
03/19/2019 23:00 651.80 0.00 25.4 65.0 --
03/19/2019 22:00 651.80 0.00 27.5 52.0 --
03/19/2019 21:00 651.80 0.00 27.5 52.0 --
03/19/2019 20:00 651.81 0.00 28.2 55.0 --
03/19/2019 19:00 651.83 0.00 37.1 24.0 --
03/19/2019 18:00 651.84 0.00 37.6 25.0 --
03/19/2019 17:00 651.84 0.00 36.7 24.0 --
03/19/2019 16:00 651.85 0.00 36.8 28.0 --
03/19/2019 15:00 651.86 0.00 34.2 35.0 --
03/19/2019 14:00 651.87 0.00 33.5 37.0 --
03/19/2019 13:00 651.87 0.00 33.5 37.0 --
03/19/2019 12:00 651.85 0.00 32.7 40.0 --
03/19/2019 11:00 651.86 0.00 31.6 48.0 --
03/19/2019 10:00 651.87 0.00 29.8 54.0 --
03/19/2019 09:00 651.88 0.00 18.3 89.0 --
03/19/2019 08:00 651.89 0.00 17.3 89.0 --
03/19/2019 07:00 651.89 0.00 17.5 89.0 --
03/19/2019 06:00 651.89 0.00 18.3 86.0 --
03/19/2019 05:00 651.90 0.00 17.8 85.0 --
03/19/2019 04:00 651.91 0.00 19.9 80.0 --
03/19/2019 03:00 651.91 0.00 19.9 80.0 --
03/19/2019 02:00 651.92 0.00 20.0 81.0 --
03/19/2019 01:00 651.92 0.00 22.7 71.0 --
03/19/2019 00:00 651.93 0.00 24.2 66.0 --
03/18/2019 23:00 651.93 0.00 25.6 65.0 --
03/18/2019 22:00 651.94 0.00 26.5 61.0 --
03/18/2019 21:00 651.95 0.00 28.9 50.0 --
03/18/2019 20:00 651.94 0.00 33.5 33.0 --
03/18/2019 19:00 651.95 0.00 35.1 27.0 --
03/18/2019 18:00 651.97 0.00 34.3 27.0 --
03/18/2019 17:00 651.96 0.00 34.2 26.0 --
03/18/2019 16:00 651.95 0.00 33.7 24.0 --
03/18/2019 15:00 652.01 0.00 32.5 28.0 --
03/18/2019 14:00 651.99 0.00 30.8 33.0 --
03/18/2019 13:00 651.99 0.00 29.3 33.0 --
03/18/2019 12:00 651.98 0.00 27.6 37.0 --
03/18/2019 11:00 652.00 0.00 26.2 47.0 --
03/18/2019 10:00 652.00 0.00 25.6 60.0 --
03/18/2019 09:00 652.00 0.00 25.6 60.0 --
03/18/2019 08:00 652.02 0.00 19.1 74.0 --
03/18/2019 07:00 652.03 0.00 17.8 74.0 --
03/18/2019 06:00 652.03 0.00 17.7 74.0 --
03/18/2019 05:00 652.04 0.00 18.3 71.0 --
03/18/2019 04:00 652.04 0.00 21.2 59.0 --
03/18/2019 03:00 652.04 0.00 22.7 54.0 --
03/18/2019 02:00 652.06 0.00 23.5 53.0 --
03/18/2019 01:00 652.06 0.00 25.7 41.0 --
03/18/2019 00:00 652.06 0.00 27.1 39.0 --
03/17/2019 23:00 652.06 0.00 27.1 39.0 --
03/17/2019 22:00 652.07 0.00 29.1 44.0 --
03/17/2019 21:00 652.07 0.00 29.6 44.0 --
03/17/2019 20:00 652.09 0.00 31.2 35.0 --
03/17/2019 19:00 652.07 0.00 32.2 32.0 --
03/17/2019 18:00 652.07 0.00 33.0 31.0 --
03/17/2019 17:00 652.09 0.00 33.0 29.0 --
03/17/2019 16:00 652.08 0.00 30.8 32.0 --
03/17/2019 15:00 652.08 0.00 30.5 36.0 --
03/17/2019 14:00 652.08 0.00 28.3 39.0 --
03/17/2019 13:00 652.09 0.00 27.7 41.0 --
03/17/2019 12:00 652.08 0.00 27.6 46.0 --
03/17/2019 11:00 652.08 0.00 27.6 46.0 --
03/17/2019 10:00 652.09 0.00 26.9 45.0 --
03/17/2019 09:00 652.08 0.00 25.8 59.0 --
03/17/2019 08:00 652.08 0.00 25.8 59.0 --
03/17/2019 07:00 652.08 0.00 26.7 57.0 --
03/17/2019 06:00 652.09 0.00 27.5 43.0 --
03/17/2019 05:00 652.09 0.00 27.9 46.0 --
03/17/2019 04:00 652.07 0.00 29.6 48.0 --
03/17/2019 03:00 652.07 0.00 29.6 48.0 --
03/17/2019 02:00 652.06 0.00 31.0 51.0 --
03/17/2019 01:00 652.03 0.00 31.7 51.0 --
03/17/2019 00:00 652.03 0.00 32.1 50.0 --
03/16/2019 23:00 652.03 0.00 32.9 48.0 --
03/16/2019 22:00 652.01 0.00 33.4 51.0 --
03/16/2019 21:00 651.98 0.00 33.8 47.0 --
03/16/2019 20:00 651.98 0.00 33.8 47.0 --
03/16/2019 19:00 651.97 0.00 34.8 45.0 --
03/16/2019 18:00 651.94 0.00 36.6 41.0 --
03/16/2019 17:00 651.94 0.04 36.6 41.0 --
03/16/2019 16:00 651.92 0.01 37.5 42.0 --
03/16/2019 15:00 651.90 0.02 38.7 44.0 --
03/16/2019 14:00 651.86 0.07 39.3 46.0 --
03/16/2019 13:00 651.84 0.00 40.3 41.0 --
03/16/2019 12:00 651.85 0.02 40.8 44.0 --
03/16/2019 11:00 651.85 0.01 41.5 47.0 --
03/16/2019 10:00 651.80 0.00 41.2 55.0 --
03/16/2019 09:00 651.80 0.00 41.1 56.0 --
03/16/2019 08:00 651.78 0.00 41.3 57.0 --
03/16/2019 07:00 651.78 0.00 41.3 57.0 --
03/16/2019 06:00 651.76 0.00 41.8 60.0 --
03/16/2019 05:00 651.72 0.00 43.2 62.0 --
03/16/2019 04:00 651.71 0.00 34.1 100.0 --
03/16/2019 03:00 651.66 0.00 37.9 92.0 --
03/16/2019 02:00 651.63 0.00 48.8 69.0 --
03/16/2019 01:00 651.62 0.00 35.6 100.0 --
03/16/2019 00:00 651.61 0.00 35.7 100.0 --
03/15/2019 23:00 651.59 0.00 35.9 100.0 --
03/15/2019 22:00 651.55 0.00 36.6 100.0 --
03/15/2019 21:00 651.55 0.00 36.6 100.0 --
03/15/2019 20:00 651.54 0.00 38.7 99.0 --
03/15/2019 19:00 651.49 0.00 54.4 76.0 --
03/15/2019 18:00 651.48 0.00 59.8 71.0 --
03/15/2019 17:00 651.44 0.00 57.9 75.0 --
03/15/2019 16:00 651.45 0.00 55.9 83.0 --
03/15/2019 15:00 651.41 0.00 54.0 89.0 --
03/15/2019 14:00 651.41 0.00 54.0 89.0 --
03/15/2019 13:00 651.43 0.01 52.1 96.0 --
03/15/2019 12:00 651.40 0.00 45.6 100.0 --
03/15/2019 11:00 651.41 0.02 39.4 100.0 --
03/15/2019 10:00 651.43 0.09 35.2 100.0 --
03/15/2019 09:00 651.40 0.00 34.1 100.0 --
03/15/2019 08:00 651.39 0.00 34.0 100.0 --
03/15/2019 07:00 651.39 0.00 34.0 100.0 --
03/15/2019 06:00 651.39 0.00 34.9 100.0 --
03/15/2019 05:00 651.41 0.00 33.2 98.0 --
03/15/2019 04:00 651.39 0.00 34.0 92.0 --
03/15/2019 03:00 651.39 0.00 34.8 87.0 --
03/15/2019 02:00 651.39 0.00 34.3 88.0 --
03/15/2019 01:00 651.38 0.00 33.9 88.0 --
03/15/2019 00:00 651.38 0.00 33.1 88.0 --
03/14/2019 23:00 651.38 0.00 33.1 88.0 --
03/14/2019 22:00 651.37 0.00 33.0 85.0 --
03/14/2019 21:00 651.38 0.00 36.6 72.0 --
03/14/2019 20:00 651.38 0.00 39.2 66.0 --
03/14/2019 19:00 651.38 0.00 44.5 53.0 --
03/14/2019 18:00 651.38 0.00 44.5 53.0 --
03/14/2019 17:00 651.38 0.00 46.9 46.0 --
03/14/2019 16:00 651.38 0.00 45.2 47.0 --
03/14/2019 15:00 651.38 0.00 45.0 45.0 --
03/14/2019 14:00 651.37 0.00 42.8 51.0 --
03/14/2019 13:00 651.37 0.00 41.3 56.0 --
03/14/2019 12:00 651.37 0.00 38.0 70.0 --
03/14/2019 11:00 651.37 0.00 38.0 70.0 --
03/14/2019 10:00 651.38 0.02 34.3 83.0 --
03/14/2019 09:00 651.38 0.00 32.0 100.0 --
03/14/2019 08:00 651.37 0.00 31.4 100.0 --
03/14/2019 07:00 651.38 0.00 31.7 100.0 --
03/14/2019 06:00 651.38 0.00 31.8 100.0 --
03/14/2019 05:00 651.38 0.00 31.8 100.0 --
03/14/2019 04:00 651.38 0.00 31.7 100.0 --
03/14/2019 03:00 651.38 0.00 31.8 100.0 --
03/14/2019 02:00 651.37 0.00 32.0 100.0 --
03/14/2019 01:00 651.37 0.00 31.9 100.0 --
03/14/2019 00:00 651.38 0.00 32.5 94.0 --
03/13/2019 23:00 651.39 0.00 33.6 86.0 --
03/13/2019 22:00 651.37 0.00 36.8 60.0 --
03/13/2019 21:00 651.38 0.00 34.2 71.0 --
03/13/2019 20:00 651.38 0.00 35.1 66.0 --
03/13/2019 19:00 651.37 0.00 38.4 47.0 --
03/13/2019 18:00 651.37 0.00 39.7 43.0 --
03/13/2019 17:00 651.37 0.00 39.7 43.0 --
03/13/2019 16:00 651.38 0.00 41.2 36.0 --
03/13/2019 15:00 651.38 0.00 41.9 26.0 --
03/13/2019 14:00 651.38 0.00 40.7 28.0 --
03/13/2019 13:00 651.38 0.00 37.7 36.0 --
03/13/2019 12:00 651.38 0.00 37.7 36.0 --
03/13/2019 11:00 651.39 0.00 35.9 38.0 --
03/13/2019 10:00 651.38 0.00 19.4 74.0 --
03/13/2019 09:00 651.37 0.00 15.8 80.0 --
03/13/2019 08:00 651.39 0.00 16.6 79.0 --
03/13/2019 07:00 651.38 0.00 17.4 78.0 --
03/13/2019 06:00 651.37 0.00 19.5 73.0 --
03/13/2019 05:00 651.37 0.00 19.5 73.0 --
03/13/2019 04:00 651.39 0.00 21.6 70.0 --
03/13/2019 03:00 651.38 0.00 24.0 63.0 --
03/13/2019 02:00 651.38 0.00 26.5 52.0 --
03/13/2019 01:00 651.37 0.00 26.8 56.0 --
03/13/2019 00:00 651.38 0.00 24.9 65.0 --
03/12/2019 23:00 651.38 0.00 26.5 63.0 --
03/12/2019 22:00 651.38 0.00 30.1 52.0 --
03/12/2019 21:00 651.37 0.00 31.2 51.0 --
03/12/2019 20:00 651.37 0.00 35.6 39.0 --
03/12/2019 19:00 651.38 0.00 38.1 36.0 --
03/12/2019 18:00 651.39 0.00 38.4 35.0 --
03/12/2019 17:00 651.37 0.00 38.1 36.0 --
03/12/2019 16:00 651.37 0.00 38.1 36.0 --
03/12/2019 15:00 651.37 0.00 36.7 39.0 --
03/12/2019 14:00 651.39 0.00 34.2 46.0 --
03/12/2019 13:00 651.40 0.00 32.9 51.0 --
03/12/2019 12:00 651.38 0.00 32.5 52.0 --
03/12/2019 11:00 651.40 0.00 31.1 60.0 --
03/12/2019 10:00 651.39 0.00 29.5 66.0 --
03/12/2019 09:00 651.39 0.00 29.5 66.0 --
03/12/2019 08:00 651.40 0.00 28.7 65.0 --
03/12/2019 07:00 651.38 0.00 29.9 56.0 --
03/12/2019 06:00 651.38 0.00 29.9 56.0 --
03/12/2019 05:00 651.40 0.00 30.8 56.0 --
03/12/2019 04:00 651.41 0.00 31.5 68.0 --
03/12/2019 03:00 651.39 0.00 31.4 66.0 --
03/12/2019 02:00 651.40 0.00 32.8 58.0 --
03/12/2019 01:00 651.40 0.00 32.8 58.0 --
03/12/2019 00:00 651.41 0.00 32.8 58.0 --
03/11/2019 23:00 651.39 0.00 34.1 56.0 --
03/11/2019 22:00 651.42 0.00 34.7 57.0 --
03/11/2019 21:00 651.40 0.00 36.3 56.0 --
03/11/2019 20:00 651.39 0.00 36.9 53.0 --
03/11/2019 19:00 651.36 0.00 37.9 53.0 --
03/11/2019 18:00 651.41 0.00 39.2 48.0 --
03/11/2019 17:00 651.39 0.01 40.2 47.0 --
03/11/2019 16:00 651.40 0.03 40.7 48.0 --
03/11/2019 15:00 651.43 0.05 39.6 51.0 --
03/11/2019 14:00 651.39 0.09 40.1 49.0 --
03/11/2019 13:00 651.42 0.17 39.7 53.0 --
03/11/2019 12:00 651.41 0.03 39.0 63.0 --
03/11/2019 11:00 651.40 0.02 37.6 73.0 --
03/11/2019 10:00 651.40 0.01 35.5 87.0 --
03/11/2019 09:00 651.40 0.00 35.1 92.0 --
03/11/2019 08:00 651.40 0.00 32.3 100.0 --
03/11/2019 07:00 651.40 0.00 32.4 100.0 --
03/11/2019 06:00 651.40 0.00 31.4 100.0 --
03/11/2019 05:00 651.40 0.00 33.4 100.0 --
03/11/2019 04:00 651.40 0.00 31.0 100.0 --
03/11/2019 03:00 651.41 0.00 31.2 100.0 --
03/11/2019 02:00 651.41 0.00 32.3 100.0 --
03/11/2019 01:00 651.42 0.00 32.1 100.0 --
03/11/2019 00:00 651.42 0.00 32.1 100.0 --
03/10/2019 23:00 651.39 0.00 31.8 100.0 --
03/10/2019 22:00 651.41 0.00 31.8 100.0 --
03/10/2019 21:00 651.41 0.02 31.8 100.0 --
03/10/2019 20:00 651.40 0.00 31.8 100.0 --
03/10/2019 19:00 651.40 0.01 31.8 100.0 --
03/10/2019 18:00 651.40 0.00 31.8 100.0 --
03/10/2019 17:00 651.41 0.00 31.4 100.0 --
03/10/2019 16:00 651.40 0.00 30.0 100.0 --
03/10/2019 15:00 651.39 0.00 29.7 100.0 --
03/10/2019 14:00 651.41 0.00 28.7 100.0 --
03/10/2019 13:00 651.40 0.00 27.8 100.0 --
03/10/2019 12:00 651.38 0.00 27.7 100.0 --
03/10/2019 11:00 651.38 0.00 27.2 100.0 --
03/10/2019 10:00 651.38 0.00 26.6 100.0 --
03/10/2019 09:00 651.37 0.00 28.3 73.0 --
03/10/2019 08:00 651.37 0.00 27.0 77.0 --
03/10/2019 07:00 651.37 0.00 25.1 78.0 --
03/10/2019 06:00 651.37 0.00 23.0 81.0 --
03/10/2019 05:00 651.37 0.00 21.8 82.0 --
03/10/2019 04:00 651.37 0.00 21.8 82.0 --
03/10/2019 03:00 651.36 0.00 19.3 84.0 --
03/10/2019 02:00 651.37 0.00 18.4 81.0 --
03/10/2019 01:00 651.37 0.00 18.4 81.0 --
03/10/2019 00:00 651.37 0.00 18.3 79.0 --
03/09/2019 23:00 651.38 0.00 18.3 76.0 --
03/09/2019 22:00 651.37 0.00 22.5 72.0 --
03/09/2019 21:00 651.36 0.00 23.4 67.0 --
03/09/2019 20:00 651.38 0.00 26.5 61.0 --
03/09/2019 19:00 651.37 0.00 31.7 49.0 --
03/09/2019 18:00 651.38 0.00 40.0 29.0 --
03/09/2019 17:00 651.38 0.00 40.0 29.0 --
03/09/2019 16:00 651.38 0.00 40.5 24.0 --
03/09/2019 15:00 651.38 0.00 39.5 23.0 --
03/09/2019 14:00 651.37 0.00 37.8 24.0 --
03/09/2019 13:00 651.38 0.00 35.6 23.0 --
03/09/2019 12:00 651.38 0.00 35.6 23.0 --
03/09/2019 11:00 651.37 0.00 34.2 24.0 --
03/09/2019 10:00 651.38 0.00 31.7 33.0 --
03/09/2019 09:00 651.38 0.00 22.2 62.0 --
03/09/2019 08:00 651.39 0.00 5.4 89.0 --
03/09/2019 07:00 651.39 0.00 6.5 89.0 --
03/09/2019 06:00 651.39 0.00 5.1 88.0 --
03/09/2019 05:00 651.38 0.00 8.5 83.0 --
03/09/2019 04:00 651.39 0.00 9.5 83.0 --
03/09/2019 03:00 651.38 0.00 11.3 79.0 --
03/09/2019 02:00 651.39 0.00 11.5 82.0 --
03/09/2019 01:00 651.40 0.00 9.9 78.0 --
03/09/2019 00:00 651.40 0.00 9.9 78.0 --
03/08/2019 23:00 651.40 0.00 12.6 79.0 --
03/08/2019 22:00 651.39 0.00 17.1 70.0 --
03/08/2019 21:00 651.39 0.00 17.1 70.0 --
03/08/2019 20:00 651.39 0.00 22.2 62.0 --
03/08/2019 19:00 651.39 0.00 29.4 35.0 --
03/08/2019 18:00 651.40 0.00 33.3 28.0 --
03/08/2019 17:00 651.39 0.00 33.5 29.0 --
03/08/2019 16:00 651.39 0.00 31.5 32.0 --
03/08/2019 15:00 651.40 0.00 31.1 33.0 --
03/08/2019 14:00 651.40 0.00 29.7 33.0 --
03/08/2019 13:00 651.39 0.00 27.0 36.0 --
03/08/2019 12:00 651.40 0.00 24.1 43.0 --
03/08/2019 11:00 651.40 0.00 24.1 43.0 --
03/08/2019 10:00 651.41 0.00 21.1 50.0 --
03/08/2019 09:00 651.40 0.00 -2.5 78.0 --
03/08/2019 08:00 651.41 0.00 -5.5 82.0 --
03/08/2019 07:00 651.40 0.00 -3.6 81.0 --
03/08/2019 06:00 651.40 0.00 -3.6 81.0 --
03/08/2019 05:00 651.40 0.00 -3.2 82.0 --
03/08/2019 04:00 651.41 0.00 -1.1 79.0 --
03/08/2019 03:00 651.41 0.00 -0.9 76.0 --
03/08/2019 02:00 651.40 0.00 2.0 72.0 --
03/08/2019 01:00 651.40 0.00 5.4 65.0 --
03/08/2019 00:00 651.42 0.00 12.8 50.0 --
03/07/2019 23:00 651.42 0.00 15.0 50.0 --
03/07/2019 22:00 651.42 0.00 16.1 48.0 --
03/07/2019 21:00 651.42 0.00 18.5 46.0 --
03/07/2019 20:00 651.42 0.00 18.5 46.0 --
03/07/2019 19:00 651.41 0.00 18.9 52.0 --
03/07/2019 18:00 651.41 0.00 20.9 44.0 --
03/07/2019 17:00 651.40 0.00 22.0 37.0 --
03/07/2019 16:00 651.41 0.00 21.5 34.0 --
03/07/2019 15:00 651.44 0.00 21.3 34.0 --
03/07/2019 14:00 651.42 0.00 18.7 38.0 --
03/07/2019 13:00 651.44 0.00 17.8 38.0 --
03/07/2019 12:00 651.45 0.00 15.8 41.0 --
03/07/2019 11:00 651.43 0.00 12.7 46.0 --
03/07/2019 10:00 651.42 0.00 9.5 59.0 --
03/07/2019 09:00 651.43 0.00 -6.2 78.0 --
03/07/2019 08:00 651.42 0.00 -9.7 79.0 --
03/07/2019 07:00 651.43 0.00 -10.1 81.0 --
03/07/2019 06:00 651.43 0.00 -8.1 80.0 --
03/07/2019 05:00 651.43 0.00 -7.8 81.0 --
03/07/2019 04:00 651.43 0.00 -5.9 79.0 --
03/07/2019 03:00 651.43 0.00 -5.4 78.0 --
03/07/2019 02:00 651.43 0.00 -5.4 78.0 --
03/07/2019 01:00 651.44 0.00 -3.8 77.0 --
03/07/2019 00:00 651.43 0.00 -2.2 78.0 --
03/06/2019 23:00 651.44 0.00 1.5 74.0 --
03/06/2019 22:00 651.42 0.00 3.5 67.0 --
03/06/2019 21:00 651.44 0.00 10.5 57.0 --
03/06/2019 20:00 651.44 0.00 14.9 43.0 --
03/06/2019 19:00 651.44 0.00 14.9 43.0 --
03/06/2019 18:00 651.43 0.00 16.6 40.0 --
03/06/2019 17:00 651.40 0.00 17.9 30.0 --
03/06/2019 16:00 651.46 0.00 17.7 33.0 --
03/06/2019 15:00 651.41 0.00 17.1 27.0 --
03/06/2019 14:00 651.43 0.00 18.4 26.0 --
03/06/2019 13:00 651.43 0.00 17.3 27.0 --
03/06/2019 12:00 651.44 0.00 16.0 31.0 --
03/06/2019 11:00 651.47 0.00 14.3 35.0 --
03/06/2019 10:00 651.45 0.00 13.1 40.0 --
03/06/2019 09:00 651.44 0.00 10.8 49.0 --
03/06/2019 08:00 651.46 0.00 -4.1 82.0 --
03/06/2019 07:00 651.45 0.00 -3.4 83.0 --
03/06/2019 06:00 651.45 0.00 -3.4 83.0 --
03/06/2019 05:00 651.45 0.00 -6.3 84.0 --
03/06/2019 04:00 651.45 0.00 -1.1 86.0 --
03/06/2019 03:00 651.45 0.00 0.7 86.0 --
03/06/2019 02:00 651.46 0.00 3.6 88.0 --
03/06/2019 01:00 651.46 0.00 3.6 88.0 --
03/06/2019 00:00 651.46 0.00 2.5 87.0 --
03/05/2019 23:00 651.46 0.00 9.0 82.0 --
03/05/2019 22:00 651.46 0.00 9.4 79.0 --
03/05/2019 21:00 651.46 0.00 12.0 76.0 --
03/05/2019 20:00 651.46 0.00 12.0 76.0 --
03/05/2019 19:00 651.47 0.00 15.9 65.0 --
03/05/2019 18:00 651.46 0.00 20.7 47.0 --
03/05/2019 17:00 651.47 0.00 25.0 34.0 --
03/05/2019 16:00 651.47 0.00 24.3 34.0 --
03/05/2019 15:00 651.46 0.00 22.8 37.0 --
03/05/2019 14:00 651.48 0.00 21.7 40.0 --
03/05/2019 13:00 651.46 0.00 20.2 39.0 --
03/05/2019 12:00 651.46 0.00 18.4 44.0 --
03/05/2019 11:00 651.46 0.00 16.5 46.0 --
03/05/2019 10:00 651.47 0.00 14.1 54.0 --
03/05/2019 09:00 651.47 0.00 9.5 73.0 --
03/05/2019 08:00 651.47 0.00 9.5 73.0 --
03/05/2019 07:00 651.47 0.00 2.9 85.0 --
03/05/2019 06:00 651.48 0.00 2.9 87.0 --
03/05/2019 05:00 651.47 0.00 6.5 86.0 --
03/05/2019 04:00 651.47 0.00 6.3 84.0 --
03/05/2019 03:00 651.48 0.00 4.8 81.0 --
03/05/2019 02:00 651.47 0.00 7.7 76.0 --
03/05/2019 01:00 651.48 0.00 17.0 49.0 --
03/05/2019 00:00 651.47 0.00 18.9 46.0 --
03/04/2019 23:00 651.49 0.00 22.4 58.0 --
03/04/2019 22:00 651.47 0.00 23.4 89.0 --
03/04/2019 21:00 651.49 0.00 26.2 63.0 --
03/04/2019 20:00 651.47 0.00 27.5 57.0 --
03/04/2019 19:00 651.46 0.00 29.1 53.0 --
03/04/2019 18:00 651.46 0.00 31.7 51.0 --
03/04/2019 17:00 651.47 0.00 31.4 60.0 --
03/04/2019 16:00 651.47 0.00 31.8 67.0 --
03/04/2019 15:00 651.49 0.00 32.1 65.0 --
03/04/2019 14:00 651.49 0.00 32.1 65.0 --
03/04/2019 13:00 651.48 0.01 32.1 71.0 --
03/04/2019 12:00 651.49 0.00 31.9 80.0 --
03/04/2019 11:00 651.49 0.00 31.4 87.0 --
03/04/2019 10:00 651.49 0.00 30.0 94.0 --
03/04/2019 09:00 651.49 0.00 29.4 99.0 --
03/04/2019 08:00 651.49 0.00 29.1 100.0 --
03/04/2019 07:00 651.48 0.00 29.1 100.0 --
03/04/2019 06:00 651.48 0.00 29.1 100.0 --
03/04/2019 05:00 651.48 0.00 29.3 100.0 --
03/04/2019 04:00 651.48 0.00 29.3 100.0 --
03/04/2019 03:00 651.47 0.00 29.5 100.0 --
03/04/2019 02:00 651.47 0.00 29.6 100.0 --
03/04/2019 01:00 651.47 0.00 29.8 100.0 --
03/04/2019 00:00 651.46 0.00 30.0 100.0 --
03/03/2019 23:00 651.46 0.00 30.1 96.0 --
03/03/2019 22:00 651.46 0.00 31.9 77.0 --
03/03/2019 21:00 651.46 0.00 31.3 71.0 --
03/03/2019 20:00 651.46 0.00 31.6 68.0 --
03/03/2019 19:00 651.45 0.00 33.3 65.0 --
03/03/2019 18:00 651.45 0.00 35.0 53.0 --
03/03/2019 17:00 651.46 0.00 36.6 45.0 --
03/03/2019 16:00 651.47 0.01 36.4 42.0 --
03/03/2019 15:00 651.47 0.00 35.7 44.0 --
03/03/2019 14:00 651.47 0.00 35.2 44.0 --
03/03/2019 13:00 651.47 0.00 34.3 46.0 --
03/03/2019 12:00 651.47 0.00 34.0 46.0 --
03/03/2019 11:00 651.45 0.00 32.8 54.0 --
03/03/2019 10:00 651.48 0.00 30.7 66.0 --
03/03/2019 09:00 651.47 0.00 27.4 88.0 --
03/03/2019 08:00 651.47 0.00 26.6 88.0 --
03/03/2019 07:00 651.48 0.00 25.4 89.0 --
03/03/2019 06:00 651.48 0.00 24.7 89.0 --
03/03/2019 05:00 651.48 0.00 25.8 86.0 --
03/03/2019 04:00 651.48 0.00 25.8 85.0 --
03/03/2019 03:00 651.48 0.00 25.8 85.0 --
03/03/2019 02:00 651.48 0.00 25.8 83.0 --
03/03/2019 01:00 651.48 0.00 23.1 80.0 --
03/03/2019 00:00 651.48 0.00 24.4 75.0 --
03/02/2019 23:00 651.48 0.00 29.2 63.0 --
03/02/2019 22:00 651.48 0.00 29.2 63.0 --
03/02/2019 21:00 651.48 0.00 27.5 64.0 --
03/02/2019 20:00 651.50 0.00 28.7 56.0 --
03/02/2019 19:00 651.49 0.00 29.0 50.0 --
03/02/2019 18:00 651.49 0.00 30.9 35.0 --
03/02/2019 17:00 651.48 0.00 31.2 37.0 --
03/02/2019 16:00 651.49 0.00 31.6 35.0 --
03/02/2019 15:00 651.50 0.00 31.7 42.0 --
03/02/2019 14:00 651.50 0.00 31.1 48.0 --
03/02/2019 13:00 651.50 0.00 31.4 55.0 --
03/02/2019 12:00 651.50 0.00 31.4 55.0 --
03/02/2019 11:00 651.49 0.00 29.2 58.0 --
03/02/2019 10:00 651.50 0.00 25.4 65.0 --
03/02/2019 09:00 651.50 0.00 24.1 71.0 --
03/02/2019 08:00 651.50 0.00 22.8 80.0 --
03/02/2019 07:00 651.51 0.00 19.8 93.0 --
03/02/2019 06:00 651.51 0.00 17.0 96.0 --
03/02/2019 05:00 651.51 0.00 17.0 96.0 --
03/02/2019 04:00 651.51 0.00 16.1 98.0 --
03/02/2019 03:00 651.51 0.00 18.5 91.0 --
03/02/2019 02:00 651.51 0.00 18.5 91.0 --
03/02/2019 01:00 651.52 0.00 19.3 89.0 --
03/02/2019 00:00 651.52 0.00 21.4 85.0 --
03/01/2019 23:00 651.52 0.00 20.9 85.0 --
03/01/2019 22:00 651.51 0.00 21.7 82.0 --
03/01/2019 21:00 651.51 0.00 22.1 81.0 --
03/01/2019 20:00 651.52 0.00 24.3 74.0 --
03/01/2019 19:00 651.52 0.00 27.5 67.0 --
03/01/2019 18:00 651.52 0.00 34.4 44.0 --
03/01/2019 17:00 651.53 0.00 35.8 41.0 --
03/01/2019 16:00 651.53 0.00 35.8 41.0 --
03/01/2019 15:00 651.52 0.00 35.4 40.0 --
03/01/2019 14:00 651.53 0.00 31.1 45.0 --
03/01/2019 13:00 651.53 0.00 31.1 45.0 --
03/01/2019 12:00 651.53 0.00 28.5 47.0 --
03/01/2019 11:00 651.53 0.01 26.6 44.0 --
03/01/2019 10:00 651.54 0.00 23.9 36.0 --
03/01/2019 09:00 651.54 0.00 6.9 76.0 --
03/01/2019 08:00 651.55 0.00 3.7 79.0 --
03/01/2019 07:00 651.54 0.00 1.1 83.0 --
03/01/2019 06:00 651.54 0.00 1.1 83.0 --
03/01/2019 05:00 651.54 0.00 0.2 83.0 --
03/01/2019 04:00 651.55 0.00 0.7 83.0 --
03/01/2019 03:00 651.55 0.00 1.9 84.0 --
03/01/2019 02:00 651.55 0.00 3.0 83.0 --
03/01/2019 01:00 651.55 0.00 3.0 83.0 --
03/01/2019 00:00 651.55 0.00 3.3 79.0 --
02/28/2019 23:00 651.55 0.00 5.3 78.0 --
02/28/2019 22:00 651.55 0.00 7.0 75.0 --
02/28/2019 21:00 651.56 0.00 12.9 68.0 --
02/28/2019 20:00 651.56 0.00 12.9 68.0 --
02/28/2019 19:00 651.56 0.00 14.6 60.0 --
02/28/2019 18:00 651.57 0.00 24.7 30.0 --
02/28/2019 17:00 651.57 0.00 24.7 31.0 --
02/28/2019 16:00 651.58 0.00 24.2 33.0 --
02/28/2019 15:00 651.58 0.00 24.2 33.0 --
02/28/2019 14:00 651.58 0.01 24.4 32.0 --
02/28/2019 13:00 651.57 0.00 19.5 60.0 --
02/28/2019 12:00 651.57 0.00 18.7 66.0 --
02/28/2019 11:00 651.58 0.00 15.7 71.0 --
02/28/2019 10:00 651.58 0.00 13.9 80.0 --
02/28/2019 09:00 651.59 0.00 11.5 85.0 --
02/28/2019 08:00 651.59 0.00 10.0 89.0 --
02/28/2019 07:00 651.59 0.00 10.0 89.0 --
02/28/2019 06:00 651.59 0.00 9.9 88.0 --
02/28/2019 05:00 651.59 0.00 9.9 88.0 --
02/28/2019 04:00 651.59 0.00 10.0 88.0 --
02/28/2019 03:00 651.59 0.00 10.6 89.0 --
02/28/2019 02:00 651.59 0.00 10.6 88.0 --
02/28/2019 01:00 651.59 0.00 10.6 88.0 --
02/28/2019 00:00 651.59 0.00 10.9 87.0 --
02/27/2019 23:00 651.59 0.00 11.2 86.0 --
02/27/2019 22:00 651.59 0.00 11.1 83.0 --
02/27/2019 21:00 651.59 0.00 11.9 80.0 --
02/27/2019 20:00 651.59 0.00 12.7 75.0 --
02/27/2019 19:00 651.60 0.00 13.4 64.0 --
02/27/2019 18:00 651.59 0.00 14.4 52.0 --
02/27/2019 17:00 651.59 0.00 15.4 32.0 --
02/27/2019 16:00 651.59 0.00 14.7 23.0 --
02/27/2019 15:00 651.59 0.00 14.7 23.0 --
02/27/2019 14:00 651.60 0.00 12.4 24.0 --
02/27/2019 13:00 651.60 0.00 10.4 25.0 --
02/27/2019 12:00 651.61 0.00 9.6 25.0 --
02/27/2019 11:00 651.60 0.00 7.6 28.0 --
02/27/2019 10:00 651.62 0.00 4.6 32.0 --
02/27/2019 09:00 651.62 0.00 4.6 32.0 --
02/27/2019 08:00 651.61 0.00 2.9 36.0 --
02/27/2019 07:00 651.62 0.00 2.8 41.0 --
02/27/2019 06:00 651.62 0.00 3.8 41.0 --
02/27/2019 05:00 651.62 0.00 4.9 40.0 --
02/27/2019 04:00 651.62 0.00 5.9 39.0 --
02/27/2019 03:00 651.62 0.00 6.8 39.0 --
02/27/2019 02:00 651.62 0.00 7.5 39.0 --
02/27/2019 01:00 651.63 0.00 8.0 40.0 --
02/27/2019 00:00 651.63 0.00 8.8 44.0 --
02/26/2019 23:00 651.62 0.00 11.3 39.0 --
02/26/2019 22:00 651.63 0.00 12.0 37.0 --
02/26/2019 21:00 651.63 0.00 12.6 36.0 --
02/26/2019 20:00 651.63 0.00 13.2 38.0 --
02/26/2019 19:00 651.62 0.00 14.8 34.0 --
02/26/2019 18:00 651.63 0.00 16.8 31.0 --
02/26/2019 17:00 651.66 0.00 17.8 28.0 --
02/26/2019 16:00 651.63 0.00 18.0 25.0 --
02/26/2019 15:00 651.63 0.00 17.8 24.0 --
02/26/2019 14:00 651.67 0.00 18.2 28.0 --
02/26/2019 13:00 651.68 0.00 17.2 30.0 --
02/26/2019 12:00 651.61 0.00 15.9 34.0 --
02/26/2019 11:00 651.64 0.00 15.4 40.0 --
02/26/2019 10:00 651.66 0.00 13.5 43.0 --
02/26/2019 09:00 651.65 0.00 13.7 49.0 --
02/26/2019 08:00 651.68 0.00 14.2 48.0 --
02/26/2019 07:00 651.68 0.00 14.2 48.0 --
02/26/2019 06:00 651.67 0.00 15.2 55.0 --
02/26/2019 05:00 651.65 0.01 16.5 61.0 --
02/26/2019 04:00 651.68 0.00 18.3 54.0 --
02/26/2019 03:00 651.69 0.00 20.2 50.0 --
02/26/2019 02:00 651.67 0.01 21.3 50.0 --
02/26/2019 01:00 651.72 0.00 22.4 48.0 --
02/26/2019 00:00 651.68 0.05 23.6 46.0 --
02/25/2019 23:00 651.71 0.00 24.7 45.0 --
02/25/2019 22:00 651.67 0.00 25.6 42.0 --
02/25/2019 21:00 651.72 0.04 26.0 44.0 --
02/25/2019 20:00 651.67 0.01 26.7 45.0 --
02/25/2019 19:00 651.63 0.11 27.7 44.0 --
02/25/2019 18:00 651.65 0.00 28.4 43.0 --
02/25/2019 17:00 651.66 0.00 27.0 73.0 --
02/25/2019 16:00 651.66 0.00 27.0 73.0 --
02/25/2019 15:00 651.66 0.02 26.9 72.0 --
02/25/2019 14:00 651.66 0.00 26.7 70.0 --
02/25/2019 13:00 651.65 0.02 27.8 67.0 --
02/25/2019 12:00 651.61 0.05 28.5 56.0 --
02/25/2019 11:00 651.70 0.00 29.9 50.0 --
02/25/2019 10:00 651.63 0.10 30.3 43.0 --
02/25/2019 09:00 651.65 0.00 30.1 47.0 --
02/25/2019 08:00 651.65 0.03 30.1 47.0 --
02/25/2019 07:00 651.62 0.00 30.1 50.0 --
02/25/2019 06:00 651.62 0.00 32.1 55.0 --
02/25/2019 05:00 651.65 0.00 32.9 50.0 --
02/25/2019 04:00 651.65 0.05 32.9 50.0 --
02/25/2019 03:00 651.64 0.01 34.7 53.0 --
02/25/2019 02:00 651.61 0.00 35.7 62.0 --
02/25/2019 01:00 651.61 0.00 35.4 72.0 --
02/25/2019 00:00 651.62 0.00 36.1 76.0 --
02/24/2019 23:00 651.59 0.00 36.2 98.0 --
02/24/2019 22:00 651.58 0.00 33.0 100.0 --
02/24/2019 21:00 651.58 0.00 32.8 100.0 --
02/24/2019 20:00 651.56 0.00 33.2 100.0 --
02/24/2019 19:00 651.57 0.00 34.2 100.0 --
02/24/2019 18:00 651.55 0.04 34.4 100.0 --
02/24/2019 17:00 651.55 0.10 34.6 100.0 --
02/24/2019 16:00 651.55 0.00 34.0 100.0 --
02/24/2019 15:00 651.55 0.00 34.0 100.0 --
02/24/2019 14:00 651.54 0.08 34.1 100.0 --
02/24/2019 13:00 651.52 0.03 33.1 100.0 --
02/24/2019 12:00 651.51 0.00 32.4 100.0 --
02/24/2019 11:00 651.52 0.00 32.1 100.0 --
02/24/2019 10:00 651.52 0.00 30.5 100.0 --
02/24/2019 09:00 651.51 0.00 29.9 100.0 --
02/24/2019 08:00 651.51 0.00 28.0 100.0 --
02/24/2019 07:00 651.51 0.00 27.7 98.0 --
02/24/2019 06:00 651.51 0.00 27.9 85.0 --
02/24/2019 05:00 651.51 0.00 27.9 85.0 --
02/24/2019 04:00 651.51 0.00 28.5 75.0 --
02/24/2019 03:00 651.51 0.00 27.2 76.0 --
02/24/2019 02:00 651.51 0.00 26.8 76.0 --
02/24/2019 01:00 651.51 0.00 25.6 76.0 --
02/24/2019 00:00 651.51 0.00 25.3 79.0 --
02/23/2019 23:00 651.52 0.00 24.5 78.0 --
02/23/2019 22:00 651.52 0.00 24.6 78.0 --
02/23/2019 21:00 651.51 0.00 24.4 78.0 --
02/23/2019 20:00 651.51 0.00 27.4 71.0 --
02/23/2019 19:00 651.52 0.00 30.3 64.0 --
02/23/2019 18:00 651.52 0.00 36.7 43.0 --
02/23/2019 17:00 651.51 0.00 38.4 37.0 --
02/23/2019 16:00 651.52 0.01 38.3 36.0 --
02/23/2019 15:00 651.52 0.00 37.5 38.0 --
02/23/2019 14:00 651.52 0.00 37.5 38.0 --
02/23/2019 13:00 651.51 0.01 36.4 39.0 --
02/23/2019 12:00 651.52 0.00 32.2 46.0 --
02/23/2019 11:00 651.53 0.00 30.8 50.0 --
02/23/2019 10:00 651.53 0.00 28.3 57.0 --
02/23/2019 09:00 651.53 0.00 19.2 83.0 --
02/23/2019 08:00 651.53 0.00 16.7 89.0 --
02/23/2019 07:00 651.52 0.00 17.9 85.0 --
02/23/2019 06:00 651.53 0.00 20.0 80.0 --
02/23/2019 05:00 651.53 0.00 23.1 74.0 --
02/23/2019 04:00 651.53 0.00 22.5 75.0 --
02/23/2019 03:00 651.53 0.00 24.0 71.0 --
02/23/2019 02:00 651.52 0.00 25.8 68.0 --
02/23/2019 01:00 651.52 0.00 25.8 68.0 --
02/23/2019 00:00 651.53 0.00 27.8 63.0 --
02/22/2019 23:00 651.52 0.00 25.1 79.0 --
02/22/2019 22:00 651.53 0.00 26.8 75.0 --
02/22/2019 21:00 651.53 0.00 27.6 73.0 --
02/22/2019 20:00 651.53 0.00 27.6 73.0 --
02/22/2019 19:00 651.52 0.00 30.0 66.0 --
02/22/2019 18:00 651.53 0.00 36.5 46.0 --
02/22/2019 17:00 651.54 0.00 37.6 46.0 --
02/22/2019 16:00 651.53 0.01 38.4 43.0 --
02/22/2019 15:00 651.55 0.01 37.7 44.0 --
02/22/2019 14:00 651.54 0.00 36.6 45.0 --
02/22/2019 13:00 651.55 0.00 35.9 47.0 --
02/22/2019 12:00 651.52 0.00 33.9 51.0 --
02/22/2019 11:00 651.51 0.00 34.2 52.0 --
02/22/2019 10:00 651.51 0.00 34.2 52.0 --
02/22/2019 09:00 651.53 0.00 33.5 54.0 --
02/22/2019 08:00 651.54 0.00 32.4 62.0 --
02/22/2019 07:00 651.54 0.00 32.8 61.0 --
02/22/2019 06:00 651.55 0.00 31.5 63.0 --
02/22/2019 05:00 651.55 0.00 31.5 63.0 --
02/22/2019 04:00 651.56 0.00 31.9 63.0 --
02/22/2019 03:00 651.53 0.00 35.5 56.0 --
02/22/2019 02:00 651.54 0.00 35.9 56.0 --
02/22/2019 01:00 651.55 0.00 36.2 53.0 --
02/22/2019 00:00 651.55 0.00 36.2 53.0 --
02/21/2019 23:00 651.54 0.01 36.8 50.0 --
02/21/2019 22:00 651.53 0.00 37.9 56.0 --
02/21/2019 21:00 651.54 0.02 38.3 57.0 --
02/21/2019 20:00 651.54 0.03 38.6 58.0 --
02/21/2019 19:00 651.54 0.04 38.9 60.0 --
02/21/2019 18:00 651.56 0.00 40.1 58.0 --
02/21/2019 17:00 651.56 0.09 40.1 58.0 --
02/21/2019 16:00 651.53 0.33 40.5 60.0 --
02/21/2019 15:00 651.57 0.00 42.1 61.0 --
02/21/2019 14:00 651.57 0.01 42.1 61.0 --
02/21/2019 13:00 651.54 0.02 38.6 81.0 --
02/21/2019 12:00 651.54 0.01 29.6 91.0 --
02/21/2019 11:00 651.54 0.00 26.4 92.0 --
02/21/2019 10:00 651.55 0.00 23.6 100.0 --
02/21/2019 09:00 651.55 0.00 22.3 100.0 --
02/21/2019 08:00 651.55 0.00 21.8 100.0 --
02/21/2019 07:00 651.55 0.00 21.8 100.0 --
02/21/2019 06:00 651.56 0.00 21.6 100.0 --
02/21/2019 05:00 651.54 0.00 20.8 100.0 --
02/21/2019 04:00 651.54 0.00 20.8 100.0 --
02/21/2019 03:00 651.55 0.00 20.7 97.0 --
02/21/2019 02:00 651.53 0.00 21.0 96.0 --
02/21/2019 01:00 651.54 0.00 21.2 94.0 --
02/21/2019 00:00 651.53 0.00 21.4 92.0 --
02/20/2019 23:00 651.53 0.00 21.4 92.0 --
02/20/2019 22:00 651.53 0.00 21.9 87.0 --
02/20/2019 21:00 651.53 0.00 25.0 42.0 --
02/20/2019 20:00 651.53 0.00 25.1 41.0 --
02/20/2019 19:00 651.53 0.00 25.8 37.0 --
02/20/2019 18:00 651.53 0.00 25.8 37.0 --
02/20/2019 17:00 651.53 0.00 25.8 38.0 --
02/20/2019 16:00 651.54 0.00 25.4 40.0 --
02/20/2019 15:00 651.53 0.00 25.2 40.0 --
02/20/2019 14:00 651.53 0.00 24.5 39.0 --
02/20/2019 13:00 651.53 0.00 24.5 39.0 --
02/20/2019 12:00 651.53 0.00 22.8 41.0 --
02/20/2019 11:00 651.54 0.00 18.9 54.0 --
02/20/2019 10:00 651.54 0.00 8.9 75.0 --
02/20/2019 09:00 651.55 0.00 3.9 82.0 --
02/20/2019 08:00 651.56 0.00 1.9 84.0 --
02/20/2019 07:00 651.55 0.00 1.3 84.0 --
02/20/2019 06:00 651.55 0.00 0.3 84.0 --
02/20/2019 05:00 651.55 0.00 1.9 82.0 --
02/20/2019 04:00 651.55 0.00 2.7 80.0 --
02/20/2019 03:00 651.55 0.00 2.7 80.0 --
02/20/2019 02:00 651.55 0.00 3.5 77.0 --
02/20/2019 01:00 651.56 0.00 6.2 78.0 --
02/20/2019 00:00 651.55 0.00 5.9 73.0 --
02/19/2019 23:00 651.57 0.00 10.1 70.0 --
02/19/2019 22:00 651.57 0.00 10.1 70.0 --
02/19/2019 21:00 651.56 0.00 9.8 64.0 --
02/19/2019 20:00 651.55 0.00 15.8 51.0 --
02/19/2019 19:00 651.56 0.00 20.4 38.0 --
02/19/2019 18:00 651.56 0.00 22.7 29.0 --
02/19/2019 17:00 651.56 0.00 23.5 30.0 --
02/19/2019 16:00 651.58 0.00 23.3 35.0 --
02/19/2019 15:00 651.58 0.00 23.3 35.0 --
02/19/2019 14:00 651.57 0.00 22.8 36.0 --
02/19/2019 13:00 651.57 0.00 21.7 38.0 --
02/19/2019 12:00 651.59 0.00 19.0 42.0 --
02/19/2019 11:00 651.60 0.00 16.2 48.0 --
02/19/2019 10:00 651.59 0.00 13.1 57.0 --
02/19/2019 09:00 651.58 0.00 9.2 78.0 --
02/19/2019 08:00 651.58 0.00 2.4 86.0 --
02/19/2019 07:00 651.58 0.00 2.4 86.0 --
02/19/2019 06:00 651.58 0.00 3.6 84.0 --
02/19/2019 05:00 651.59 0.00 5.8 83.0 --
02/19/2019 04:00 651.59 0.00 7.5 76.0 --
02/19/2019 03:00 651.60 0.00 13.3 57.0 --
02/19/2019 02:00 651.60 0.00 13.3 57.0 --
02/19/2019 01:00 651.60 0.00 13.4 56.0 --
02/19/2019 00:00 651.59 0.00 13.3 53.0 --
02/18/2019 23:00 651.59 0.00 14.5 50.0 --
02/18/2019 22:00 651.60 0.00 18.2 64.0 --
02/18/2019 21:00 651.61 0.00 20.6 71.0 --
02/18/2019 20:00 651.60 0.00 23.7 77.0 --
02/18/2019 19:00 651.60 0.00 23.9 77.0 --
02/18/2019 18:00 651.61 0.00 25.7 80.0 --
02/18/2019 17:00 651.61 0.00 26.0 85.0 --
02/18/2019 16:00 651.61 0.00 25.2 89.0 --
02/18/2019 15:00 651.61 0.00 24.1 87.0 --
02/18/2019 14:00 651.60 0.00 24.2 87.0 --
02/18/2019 13:00 651.61 0.00 23.4 90.0 --
02/18/2019 12:00 651.61 0.00 22.9 94.0 --
02/18/2019 11:00 651.60 0.00 22.1 93.0 --
02/18/2019 10:00 651.61 0.00 21.7 88.0 --
02/18/2019 09:00 651.61 0.00 21.5 87.0 --
02/18/2019 08:00 651.61 0.00 21.5 85.0 --
02/18/2019 07:00 651.61 0.00 21.9 83.0 --
02/18/2019 06:00 651.61 0.00 21.9 83.0 --
02/18/2019 05:00 651.61 0.00 22.4 74.0 --
02/18/2019 04:00 651.62 0.00 24.0 57.0 --
02/18/2019 03:00 651.62 0.00 24.4 54.0 --
02/18/2019 02:00 651.62 0.00 24.7 56.0 --
02/18/2019 01:00 651.62 0.00 25.0 54.0 --
02/18/2019 00:00 651.62 0.00 24.2 57.0 --
02/17/2019 23:00 651.62 0.00 24.7 56.0 --
02/17/2019 22:00 651.63 0.00 24.6 53.0 --
02/17/2019 21:00 651.63 0.00 24.1 48.0 --
02/17/2019 20:00 651.63 0.00 24.0 50.0 --
02/17/2019 19:00 651.63 0.00 26.5 44.0 --
02/17/2019 18:00 651.62 0.00 30.4 24.0 --
02/17/2019 17:00 651.61 0.00 32.3 20.0 --
02/17/2019 16:00 651.63 0.00 31.1 21.0 --
02/17/2019 15:00 651.63 0.00 29.5 23.0 --
02/17/2019 14:00 651.64 0.00 26.9 27.0 --
02/17/2019 13:00 651.65 0.00 24.3 30.0 --
02/17/2019 12:00 651.64 0.00 22.5 38.0 --
02/17/2019 11:00 651.65 0.00 19.8 46.0 --
02/17/2019 10:00 651.65 0.00 19.8 46.0 --
02/17/2019 09:00 651.65 0.00 17.1 54.0 --
02/17/2019 08:00 651.65 0.00 14.4 64.0 --
02/17/2019 07:00 651.66 0.00 15.3 64.0 --
02/17/2019 06:00 651.66 0.00 16.3 63.0 --
02/17/2019 05:00 651.65 0.00 17.2 62.0 --
02/17/2019 04:00 651.65 0.00 18.2 61.0 --
02/17/2019 03:00 651.67 0.00 19.0 59.0 --
02/17/2019 02:00 651.66 0.00 19.5 58.0 --
02/17/2019 01:00 651.67 0.00 20.5 57.0 --
02/17/2019 00:00 651.66 0.00 21.9 54.0 --
02/16/2019 23:00 651.67 0.00 24.3 53.0 --
02/16/2019 22:00 651.66 0.00 26.3 51.0 --
02/16/2019 21:00 651.66 0.00 28.8 58.0 --
02/16/2019 20:00 651.68 0.00 29.9 52.0 --
02/16/2019 19:00 651.67 0.00 30.3 52.0 --
02/16/2019 18:00 651.67 0.00 32.3 51.0 --
02/16/2019 17:00 651.69 0.00 33.2 51.0 --
02/16/2019 16:00 651.69 0.00 33.2 51.0 --
02/16/2019 15:00 651.66 0.00 33.1 51.0 --
02/16/2019 14:00 651.67 0.00 32.8 51.0 --
02/16/2019 13:00 651.69 0.00 32.1 51.0 --
02/16/2019 12:00 651.71 0.00 32.5 51.0 --
02/16/2019 11:00 651.70 0.00 32.1 52.0 --
02/16/2019 10:00 651.70 0.00 30.4 56.0 --
02/16/2019 09:00 651.68 0.00 28.0 71.0 --
02/16/2019 08:00 651.68 0.00 28.2 63.0 --
02/16/2019 07:00 651.70 0.00 28.9 61.0 --
02/16/2019 06:00 651.72 0.00 28.9 64.0 --
02/16/2019 05:00 651.71 0.00 29.7 63.0 --
02/16/2019 04:00 651.71 0.00 29.7 63.0 --
02/16/2019 03:00 651.70 0.00 29.2 77.0 --
02/16/2019 02:00 651.71 0.00 31.9 100.0 --
02/16/2019 01:00 651.71 0.00 31.4 100.0 --
02/16/2019 00:00 651.71 0.00 31.6 100.0 --
02/15/2019 23:00 651.71 0.00 31.4 100.0 --
02/15/2019 22:00 651.71 0.00 31.7 100.0 --
02/15/2019 21:00 651.72 0.00 31.8 100.0 --
02/15/2019 20:00 651.72 0.00 31.8 100.0 --
02/15/2019 19:00 651.72 0.00 31.9 100.0 --
02/15/2019 18:00 651.72 0.00 31.9 100.0 --
02/15/2019 17:00 651.73 0.00 31.9 100.0 --
02/15/2019 16:00 651.72 0.00 31.4 100.0 --
02/15/2019 15:00 651.74 0.00 31.6 100.0 --
02/15/2019 14:00 651.72 0.00 31.3 100.0 --
02/15/2019 13:00 651.74 0.00 30.3 100.0 --
02/15/2019 12:00 651.73 0.00 27.7 96.0 --
02/15/2019 11:00 651.73 0.00 27.5 83.0 --
02/15/2019 10:00 651.73 0.00 26.5 80.0 --
02/15/2019 09:00 651.74 0.00 24.1 82.0 --
02/15/2019 08:00 651.74 0.00 24.1 82.0 --
02/15/2019 07:00 651.75 0.00 23.1 87.0 --
02/15/2019 06:00 651.74 0.00 21.0 89.0 --
02/15/2019 05:00 651.76 0.00 21.2 88.0 --
02/15/2019 04:00 651.75 0.00 20.7 84.0 --
02/15/2019 03:00 651.75 0.00 20.7 84.0 --
02/15/2019 02:00 651.76 0.00 19.9 85.0 --
02/15/2019 01:00 651.76 0.00 19.1 84.0 --
02/15/2019 00:00 651.76 0.00 19.1 84.0 --
02/14/2019 23:00 651.76 0.00 19.0 85.0 --
02/14/2019 22:00 651.77 0.00 20.3 81.0 --
02/14/2019 21:00 651.76 0.00 21.7 78.0 --
02/14/2019 20:00 651.77 0.00 24.8 68.0 --
02/14/2019 19:00 651.78 0.00 28.2 60.0 --
02/14/2019 18:00 651.78 0.00 32.4 46.0 --
02/14/2019 17:00 651.79 0.00 33.2 44.0 --
02/14/2019 16:00 651.78 0.00 32.7 42.0 --
02/14/2019 15:00 651.77 0.00 32.7 43.0 --
02/14/2019 14:00 651.81 0.00 30.3 47.0 --
02/14/2019 13:00 651.80 0.00 29.6 48.0 --
02/14/2019 12:00 651.81 0.00 28.7 51.0 --
02/14/2019 11:00 651.79 0.00 26.8 60.0 --
02/14/2019 10:00 651.80 0.00 24.9 73.0 --
02/14/2019 09:00 651.81 0.00 23.8 78.0 --
02/14/2019 08:00 651.82 0.00 23.1 81.0 --
02/14/2019 07:00 651.81 0.00 23.9 73.0 --
02/14/2019 06:00 651.82 0.00 24.6 70.0 --
02/14/2019 05:00 651.82 0.00 24.7 65.0 --
02/14/2019 04:00 651.82 0.00 24.7 65.0 --
02/14/2019 03:00 651.83 0.00 25.6 60.0 --
02/14/2019 02:00 651.83 0.00 25.7 61.0 --
02/14/2019 01:00 651.83 0.00 26.6 53.0 --
02/14/2019 00:00 651.81 0.00 26.9 53.0 --
02/13/2019 23:00 651.81 0.00 26.9 53.0 --
02/13/2019 22:00 651.82 0.00 28.0 58.0 --
02/13/2019 21:00 651.83 0.00 29.3 60.0 --
02/13/2019 20:00 651.84 0.00 30.4 61.0 --
02/13/2019 19:00 651.85 0.00 30.9 63.0 --
02/13/2019 18:00 651.85 0.01 32.6 75.0 --
02/13/2019 17:00 651.84 0.00 34.7 68.0 --
02/13/2019 16:00 651.85 0.01 34.9 77.0 --
02/13/2019 15:00 651.86 0.01 34.6 80.0 --
02/13/2019 14:00 651.86 0.00 33.0 88.0 --
02/13/2019 13:00 651.86 0.00 33.0 88.0 --
02/13/2019 12:00 651.86 0.00 30.5 93.0 --
02/13/2019 11:00 651.86 0.00 27.8 100.0 --
02/13/2019 10:00 651.87 0.00 26.8 100.0 --
02/13/2019 09:00 651.87 0.00 25.6 100.0 --
02/13/2019 08:00 651.87 0.00 25.6 100.0 --
02/13/2019 07:00 651.86 0.00 24.7 100.0 --
02/13/2019 06:00 651.88 0.00 23.6 100.0 --
02/13/2019 05:00 651.88 0.00 21.9 100.0 --
02/13/2019 04:00 651.87 0.00 21.6 100.0 --
02/13/2019 03:00 651.87 0.00 21.6 100.0 --
02/13/2019 02:00 651.87 0.00 20.1 100.0 --
02/13/2019 01:00 651.86 0.00 18.6 100.0 --
02/13/2019 00:00 651.87 0.00 18.2 99.0 --
02/12/2019 23:00 651.85 0.00 17.8 98.0 --
02/12/2019 22:00 651.85 0.00 17.8 98.0 --
02/12/2019 21:00 651.86 0.00 17.5 97.0 --
02/12/2019 20:00 651.86 0.00 16.8 97.0 --
02/12/2019 19:00 651.84 0.00 16.6 95.0 --
02/12/2019 18:00 651.83 0.00 16.9 92.0 --
02/12/2019 17:00 651.83 0.00 17.3 84.0 --
02/12/2019 16:00 651.84 0.00 19.3 50.0 --
02/12/2019 15:00 651.84 0.00 18.9 39.0 --
02/12/2019 14:00 651.84 0.00 19.2 38.0 --
02/12/2019 13:00 651.85 0.00 17.6 39.0 --
02/12/2019 12:00 651.85 0.00 17.6 39.0 --
02/12/2019 11:00 651.86 0.00 16.2 40.0 --
02/12/2019 10:00 651.87 0.00 12.7 56.0 --
02/12/2019 09:00 651.87 0.00 9.8 59.0 --
02/12/2019 08:00 651.87 0.00 8.4 64.0 --
02/12/2019 07:00 651.87 0.00 8.4 64.0 --
02/12/2019 06:00 651.88 0.00 8.6 58.0 --
02/12/2019 05:00 651.89 0.00 10.4 45.0 --
02/12/2019 04:00 651.89 0.00 10.9 41.0 --
02/12/2019 03:00 651.91 0.00 12.0 38.0 --
02/12/2019 02:00 651.91 0.00 13.1 37.0 --
02/12/2019 01:00 651.93 0.00 14.0 38.0 --
02/12/2019 00:00 651.92 0.00 15.3 37.0 --
02/11/2019 23:00 651.92 0.00 18.0 35.0 --
02/11/2019 22:00 651.92 0.00 20.4 32.0 --
02/11/2019 21:00 651.93 0.00 22.7 28.0 --
02/11/2019 20:00 651.93 0.00 23.8 29.0 --
02/11/2019 19:00 651.95 0.00 25.5 25.0 --
02/11/2019 18:00 651.94 0.00 27.5 25.0 --
02/11/2019 17:00 651.96 0.00 28.4 27.0 --
02/11/2019 16:00 651.96 0.00 28.1 28.0 --
02/11/2019 15:00 651.96 0.00 27.5 30.0 --
02/11/2019 14:00 651.98 0.00 25.9 35.0 --
02/11/2019 13:00 651.98 0.00 24.3 35.0 --
02/11/2019 12:00 651.98 0.00 23.2 40.0 --
02/11/2019 11:00 651.98 0.00 21.0 48.0 --
02/11/2019 10:00 651.99 0.00 20.0 50.0 --
02/11/2019 09:00 651.99 0.00 20.0 59.0 --
02/11/2019 08:00 652.01 0.00 20.5 58.0 --
02/11/2019 07:00 652.01 0.00 21.1 55.0 --
02/11/2019 06:00 652.02 0.00 21.3 52.0 --
02/11/2019 05:00 652.03 0.00 21.6 51.0 --
02/11/2019 04:00 652.03 0.00 21.8 51.0 --
02/11/2019 03:00 652.03 0.00 22.2 51.0 --
02/11/2019 02:00 652.04 0.00 22.7 56.0 --
02/11/2019 01:00 652.04 0.00 22.7 56.0 --
02/11/2019 00:00 652.04 0.00 23.1 56.0 --
02/10/2019 23:00 652.05 0.00 23.5 57.0 --
02/10/2019 22:00 652.06 0.00 22.3 61.0 --
02/10/2019 21:00 652.07 0.00 22.3 59.0 --
02/10/2019 20:00 652.07 0.00 23.3 54.0 --
02/10/2019 19:00 652.07 0.00 25.8 42.0 --
02/10/2019 18:00 652.06 0.00 27.4 35.0 --
02/10/2019 17:00 652.09 0.00 28.2 33.0 --
02/10/2019 16:00 652.09 0.00 28.3 34.0 --
02/10/2019 15:00 652.09 0.00 28.3 34.0 --
02/10/2019 14:00 652.11 0.00 27.4 32.0 --
02/10/2019 13:00 652.11 0.00 24.5 29.0 --
02/10/2019 12:00 652.11 0.00 22.8 30.0 --
02/10/2019 11:00 652.13 0.00 20.5 37.0 --
02/10/2019 10:00 652.14 0.00 18.1 44.0 --
02/10/2019 09:00 652.13 0.00 17.0 48.0 --
02/10/2019 08:00 652.15 0.00 11.7 72.0 --
02/10/2019 07:00 652.15 0.00 12.6 69.0 --
02/10/2019 06:00 652.16 0.00 13.6 64.0 --
02/10/2019 05:00 652.16 0.00 13.6 64.0 --
02/10/2019 04:00 652.17 0.00 15.7 55.0 --
02/10/2019 03:00 652.17 0.00 18.5 40.0 --
02/10/2019 02:00 652.18 0.00 18.9 39.0 --
02/10/2019 01:00 652.19 0.00 19.4 38.0 --
02/10/2019 00:00 652.19 0.00 20.1 38.0 --
02/09/2019 23:00 652.19 0.00 21.5 34.0 --
02/09/2019 22:00 652.19 0.00 21.5 34.0 --
02/09/2019 21:00 652.20 0.00 21.4 31.0 --
02/09/2019 20:00 652.20 0.00 23.8 26.0 --
02/09/2019 19:00 652.20 0.00 23.8 26.0 --
02/09/2019 18:00 652.19 0.00 24.8 23.0 --
02/09/2019 17:00 652.18 0.00 26.8 23.0 --
02/09/2019 16:00 652.23 0.00 26.5 23.0 --
02/09/2019 15:00 652.20 0.00 25.4 25.0 --
02/09/2019 14:00 652.20 0.00 25.4 25.0 --
02/09/2019 13:00 652.22 0.00 25.0 25.0 --
02/09/2019 12:00 652.24 0.00 22.1 35.0 --
02/09/2019 11:00 652.23 0.00 20.6 41.0 --
02/09/2019 10:00 652.20 0.00 19.2 44.0 --
02/09/2019 09:00 652.20 0.00 19.2 44.0 --
02/09/2019 08:00 652.20 0.32 18.4 41.0 --
02/09/2019 07:00 652.23 0.00 18.7 39.0 --
02/09/2019 06:00 652.20 0.10 19.1 39.0 --
02/09/2019 05:00 652.22 0.00 19.9 42.0 --
02/09/2019 04:00 652.22 0.00 19.9 42.0 --
02/09/2019 03:00 652.20 0.00 19.5 61.0 --
02/09/2019 02:00 652.20 0.00 22.2 54.0 --
02/09/2019 01:00 652.24 0.00 23.5 49.0 --
02/09/2019 00:00 652.14 0.00 25.1 41.0 --
02/08/2019 23:00 652.16 0.01 25.9 42.0 --
02/08/2019 22:00 652.16 0.04 27.3 47.0 --
02/08/2019 21:00 652.12 0.00 28.6 44.0 --
02/08/2019 20:00 652.10 0.00 30.3 45.0 --
02/08/2019 19:00 652.10 0.09 34.0 37.0 --
02/08/2019 18:00 652.07 0.23 38.0 38.0 --
02/08/2019 17:00 652.08 0.05 41.9 48.0 --
02/08/2019 16:00 652.07 0.00 44.0 59.0 --
02/08/2019 15:00 652.03 0.00 45.1 70.0 --
02/08/2019 14:00 652.03 0.00 45.1 77.0 --
02/08/2019 13:00 652.03 0.01 43.7 99.0 --
02/08/2019 12:00 652.02 0.00 40.8 100.0 --
02/08/2019 11:00 652.02 0.03 40.8 100.0 --
02/08/2019 10:00 652.01 0.09 33.3 100.0 --
02/08/2019 09:00 651.98 0.00 32.8 100.0 --
02/08/2019 08:00 651.97 0.00 32.1 100.0 --
02/08/2019 07:00 651.97 0.00 32.2 100.0 --
02/08/2019 06:00 651.97 0.00 32.3 100.0 --
02/08/2019 05:00 651.97 0.00 32.1 100.0 --
02/08/2019 04:00 651.97 0.08 32.1 100.0 --
02/08/2019 03:00 651.95 0.04 32.1 100.0 --
02/08/2019 02:00 651.95 0.02 32.3 100.0 --
02/08/2019 01:00 651.94 0.00 32.3 100.0 --
02/08/2019 00:00 651.93 0.00 32.3 100.0 --
02/07/2019 23:00 651.94 0.00 32.4 100.0 --
02/07/2019 22:00 651.94 0.00 32.2 100.0 --
02/07/2019 21:00 651.94 0.00 32.1 100.0 --
02/07/2019 20:00 651.92 0.00 32.1 100.0 --
02/07/2019 19:00 651.92 0.00 32.2 100.0 --
02/07/2019 18:00 651.93 0.00 32.3 100.0 --
02/07/2019 17:00 651.93 0.01 32.3 100.0 --
02/07/2019 16:00 651.92 0.02 32.7 100.0 --
02/07/2019 15:00 651.92 0.03 32.5 100.0 --
02/07/2019 14:00 651.92 0.19 32.3 100.0 --
02/07/2019 13:00 651.92 0.02 32.5 100.0 --
02/07/2019 12:00 651.92 0.00 32.2 100.0 --
02/07/2019 11:00 651.92 0.00 31.7 100.0 --
02/07/2019 10:00 651.92 0.00 31.7 100.0 --
02/07/2019 09:00 651.92 0.00 31.4 100.0 --
02/07/2019 08:00 651.91 0.00 30.7 100.0 --
02/07/2019 07:00 651.91 0.00 30.5 100.0 --
02/07/2019 06:00 651.91 0.00 30.7 100.0 --
02/07/2019 05:00 651.91 0.00 30.5 100.0 --
02/07/2019 04:00 651.90 0.00 30.7 100.0 --
02/07/2019 03:00 651.90 0.00 30.7 100.0 --
02/07/2019 02:00 651.91 0.00 30.7 100.0 --
02/07/2019 01:00 651.90 0.00 30.2 100.0 --
02/07/2019 00:00 651.89 0.00 30.7 100.0 --
02/06/2019 23:00 651.88 0.00 29.3 100.0 --
02/06/2019 22:00 651.86 0.00 29.3 100.0 --
02/06/2019 21:00 651.86 0.00 29.3 100.0 --
02/06/2019 20:00 651.87 0.02 28.8 93.0 --
02/06/2019 19:00 651.84 0.00 30.3 69.0 --
02/06/2019 18:00 651.85 0.00 32.0 60.0 --
02/06/2019 17:00 651.85 0.00 37.1 47.0 --
02/06/2019 16:00 651.85 0.00 37.7 46.0 --
02/06/2019 15:00 651.83 0.00 38.1 45.0 --
02/06/2019 14:00 651.84 0.00 37.3 45.0 --
02/06/2019 13:00 651.83 0.00 35.9 47.0 --
02/06/2019 12:00 651.83 0.00 34.3 48.0 --
02/06/2019 11:00 651.83 0.00 34.3 48.0 --
02/06/2019 10:00 651.81 0.00 31.5 50.0 --
02/06/2019 09:00 651.81 0.00 28.9 55.0 --
02/06/2019 08:00 651.80 0.00 26.3 60.0 --
02/06/2019 07:00 651.79 0.00 26.8 61.0 --
02/06/2019 06:00 651.79 0.00 26.8 61.0 --
02/06/2019 05:00 651.79 0.00 27.3 61.0 --
02/06/2019 04:00 651.77 0.00 27.9 64.0 --
02/06/2019 03:00 651.77 0.00 29.2 66.0 --
02/06/2019 02:00 651.75 0.00 32.0 64.0 --
02/06/2019 01:00 651.73 0.00 33.7 64.0 --
02/06/2019 00:00 651.72 0.00 35.7 70.0 --
02/05/2019 23:00 651.73 0.00 39.0 62.0 --
02/05/2019 22:00 651.72 0.00 40.7 60.0 --
02/05/2019 21:00 651.69 0.00 44.2 59.0 --
02/05/2019 20:00 651.69 0.00 44.2 59.0 --
02/05/2019 19:00 651.70 0.00 46.9 58.0 --
02/05/2019 18:00 651.69 0.00 49.9 55.0 --
02/05/2019 17:00 651.66 0.00 53.0 50.0 --
02/05/2019 16:00 651.66 0.00 56.3 52.0 --
02/05/2019 15:00 651.66 0.00 56.3 52.0 --
02/05/2019 14:00 651.65 0.00 56.2 53.0 --
02/05/2019 13:00 651.66 0.00 55.0 61.0 --
02/05/2019 12:00 651.64 0.00 52.6 64.0 --
02/05/2019 11:00 651.65 0.00 46.8 75.0 --
02/05/2019 10:00 651.65 0.00 46.8 75.0 --
02/05/2019 09:00 651.64 0.00 43.9 79.0 --
02/05/2019 08:00 651.63 0.00 40.3 84.0 --
02/05/2019 07:00 651.63 0.00 39.5 82.0 --
02/05/2019 06:00 651.64 0.00 41.5 85.0 --
02/05/2019 05:00 651.64 0.00 41.5 85.0 --
02/05/2019 04:00 651.64 0.00 38.0 97.0 --
02/05/2019 03:00 651.63 0.00 35.8 96.0 --
02/05/2019 02:00 651.64 0.00 32.8 100.0 --
02/05/2019 01:00 651.64 0.00 32.3 100.0 --
02/05/2019 00:00 651.64 0.00 33.3 100.0 --
02/04/2019 23:00 651.63 0.00 33.7 100.0 --
02/04/2019 22:00 651.63 0.00 33.7 100.0 --
02/04/2019 21:00 651.64 0.00 32.9 100.0 --
02/04/2019 20:00 651.63 0.00 34.5 98.0 --
02/04/2019 19:00 651.63 0.00 34.5 98.0 --
02/04/2019 18:00 651.63 0.00 35.0 92.0 --
02/04/2019 17:00 651.63 0.00 55.5 58.0 --
02/04/2019 16:00 651.63 0.00 55.9 56.0 --
02/04/2019 15:00 651.64 0.00 56.1 56.0 --
02/04/2019 14:00 651.63 0.00 53.8 55.0 --
02/04/2019 13:00 651.63 0.00 51.6 57.0 --
02/04/2019 12:00 651.63 0.00 51.6 57.0 --
02/04/2019 11:00 651.63 0.02 50.6 59.0 --
02/04/2019 10:00 651.63 0.00 35.4 85.0 --
02/04/2019 09:00 651.64 0.00 28.9 91.0 --
02/04/2019 08:00 651.63 0.00 24.5 93.0 --
02/04/2019 07:00 651.63 0.00 24.5 93.0 --
02/04/2019 06:00 651.66 0.00 26.7 89.0 --
02/04/2019 05:00 651.65 0.00 28.7 83.0 --
02/04/2019 04:00 651.64 0.00 28.9 81.0 --
02/04/2019 03:00 651.64 0.00 30.1 80.0 --
02/04/2019 02:00 651.64 0.00 30.1 80.0 --
02/04/2019 01:00 651.64 0.00 29.8 82.0 --
02/04/2019 00:00 651.65 0.00 29.0 81.0 --
02/03/2019 23:00 651.64 0.00 30.0 80.0 --
02/03/2019 22:00 651.65 0.00 30.3 81.0 --
02/03/2019 21:00 651.65 0.00 30.3 81.0 --
02/03/2019 20:00 651.65 0.00 31.0 72.0 --
02/03/2019 19:00 651.65 0.00 31.1 73.0 --
02/03/2019 18:00 651.65 0.00 31.6 71.0 --
02/03/2019 17:00 651.65 0.00 32.8 65.0 --
02/03/2019 16:00 651.65 0.00 32.8 65.0 --
02/03/2019 15:00 651.65 0.00 32.4 66.0 --
02/03/2019 14:00 651.65 0.00 30.6 70.0 --
02/03/2019 13:00 651.66 0.00 28.1 69.0 --
02/03/2019 12:00 651.66 0.00 26.5 71.0 --
02/03/2019 11:00 651.66 0.00 26.5 71.0 --
02/03/2019 10:00 651.67 0.00 23.0 78.0 --
02/03/2019 09:00 651.67 0.00 18.8 87.0 --
02/03/2019 08:00 651.67 0.00 17.4 90.0 --
02/03/2019 07:00 651.68 0.00 15.7 92.0 --
02/03/2019 06:00 651.68 0.00 13.7 92.0 --
02/03/2019 05:00 651.68 0.00 17.7 89.0 --
02/03/2019 04:00 651.68 0.00 21.0 82.0 --
02/03/2019 03:00 651.67 0.00 23.5 81.0 --
02/03/2019 02:00 651.68 0.00 24.2 78.0 --
02/03/2019 01:00 651.68 0.00 26.4 74.0 --
02/03/2019 00:00 651.67 0.00 28.6 65.0 --
02/02/2019 23:00 651.69 0.00 30.6 63.0 --
02/02/2019 22:00 651.67 0.00 29.2 67.0 --
02/02/2019 21:00 651.68 0.00 27.0 68.0 --
02/02/2019 20:00 651.68 0.00 29.5 53.0 --
02/02/2019 19:00 651.69 0.00 29.2 47.0 --
02/02/2019 18:00 651.67 0.00 29.3 43.0 --
02/02/2019 17:00 651.67 0.00 29.3 43.0 --
02/02/2019 16:00 651.70 0.00 29.7 35.0 --
02/02/2019 15:00 651.70 0.00 22.1 31.0 --
02/02/2019 14:00 651.70 0.00 20.8 30.0 --
02/02/2019 13:00 651.71 0.00 19.7 31.0 --
02/02/2019 12:00 651.72 0.00 15.6 43.0 --
02/02/2019 11:00 651.73 0.00 8.7 64.0 --
02/02/2019 10:00 651.72 0.00 -1.1 76.0 --
02/02/2019 09:00 651.72 0.00 -6.1 80.0 --
02/02/2019 08:00 651.72 0.00 -6.5 80.0 --
02/02/2019 07:00 651.73 0.00 -6.1 80.0 --
02/02/2019 06:00 651.73 0.00 -5.8 79.0 --
02/02/2019 05:00 651.73 0.00 -3.5 80.0 --
02/02/2019 04:00 651.73 0.00 -6.2 81.0 --
02/02/2019 03:00 651.74 0.00 -4.7 82.0 --
02/02/2019 02:00 651.73 0.00 -3.2 81.0 --
02/02/2019 01:00 651.73 0.00 -2.0 80.0 --
02/02/2019 00:00 651.73 0.00 0.3 83.0 --
02/01/2019 23:00 651.73 0.00 0.3 83.0 --
02/01/2019 22:00 651.74 0.00 1.2 81.0 --
02/01/2019 21:00 651.75 0.00 3.2 66.0 --
02/01/2019 20:00 651.76 0.00 5.4 62.0 --
02/01/2019 19:00 651.76 0.00 10.5 47.0 --
02/01/2019 18:00 651.76 0.00 14.4 39.0 --
02/01/2019 17:00 651.76 0.00 16.2 36.0 --
02/01/2019 16:00 651.77 0.00 16.1 36.0 --
02/01/2019 15:00 651.77 0.00 16.0 37.0 --
02/01/2019 14:00 651.77 0.00 14.0 41.0 --
02/01/2019 13:00 651.78 0.00 12.6 42.0 --
02/01/2019 12:00 651.78 0.00 10.9 44.0 --
02/01/2019 11:00 651.79 0.00 8.7 46.0 --
02/01/2019 10:00 651.78 0.00 5.7 49.0 --
02/01/2019 09:00 651.79 0.00 -4.7 66.0 --
02/01/2019 08:00 651.77 0.00 -5.7 66.0 --
02/01/2019 07:00 651.79 0.00 -2.0 65.0 --
02/01/2019 06:00 651.80 0.00 2.2 49.0 --
02/01/2019 05:00 651.81 0.00 4.1 44.0 --
02/01/2019 04:00 651.81 0.00 4.2 42.0 --
02/01/2019 03:00 651.82 0.00 4.7 41.0 --
02/01/2019 02:00 651.82 0.00 3.8 43.0 --
02/01/2019 01:00 651.82 0.00 4.1 43.0 --
02/01/2019 00:00 651.82 0.00 4.4 42.0 --
01/31/2019 23:00 651.81 0.00 -0.5 68.0 --
01/31/2019 22:00 651.81 0.00 3.9 42.0 --
01/31/2019 21:00 651.84 0.00 2.3 45.0 --
01/31/2019 20:00 651.83 0.00 3.6 44.0 --
01/31/2019 19:00 651.83 0.00 3.6 44.0 --
01/31/2019 18:00 651.83 0.00 7.1 35.0 --
01/31/2019 17:00 651.83 0.00 11.2 29.0 --
01/31/2019 16:00 651.84 0.00 11.2 32.0 --
01/31/2019 15:00 651.84 0.00 10.4 33.0 --
01/31/2019 14:00 651.86 0.00 9.0 34.0 --
01/31/2019 13:00 651.86 0.00 6.2 36.0 --
01/31/2019 12:00 651.86 0.00 6.2 36.0 --
01/31/2019 11:00 651.87 0.00 4.1 37.0 --
01/31/2019 10:00 651.87 0.00 -1.6 43.0 --
01/31/2019 09:00 651.87 0.00 -1.6 43.0 --
01/31/2019 08:00 651.87 0.00 -3.3 44.0 --
01/31/2019 07:00 651.90 0.00 -3.4 44.0 --
01/31/2019 06:00 651.89 0.00 -3.0 43.0 --
01/31/2019 05:00 651.88 0.00 -3.6 46.0 --
01/31/2019 04:00 651.90 0.00 -1.5 42.0 --
01/31/2019 03:00 651.91 0.00 -0.9 41.0 --
01/31/2019 02:00 651.91 0.00 -0.9 41.0 --
01/31/2019 01:00 651.91 0.00 -0.5 41.0 --
01/31/2019 00:00 651.89 0.00 2.7 38.0 --
01/30/2019 23:00 651.89 0.00 4.6 41.0 --
01/30/2019 22:00 651.90 0.00 8.0 57.0 --
01/30/2019 21:00 651.93 0.00 14.9 58.0 --
01/30/2019 20:00 651.93 0.01 16.1 64.0 --
01/30/2019 19:00 651.94 0.00 23.3 41.0 --
01/30/2019 18:00 651.95 0.00 23.8 36.0 --
01/30/2019 17:00 651.95 0.00 24.4 31.0 --
01/30/2019 16:00 651.95 0.00 24.4 31.0 --
01/30/2019 15:00 651.96 0.00 25.1 24.0 --
01/30/2019 14:00 651.96 0.00 22.2 30.0 --
01/30/2019 13:00 651.96 0.00 22.2 30.0 --
01/30/2019 12:00 651.97 0.00 21.5 45.0 --
01/30/2019 11:00 651.98 0.00 21.0 61.0 --
01/30/2019 10:00 651.98 0.00 21.4 75.0 --
01/30/2019 09:00 651.98 0.00 21.7 86.0 --
01/30/2019 08:00 651.98 0.00 21.0 93.0 --
01/30/2019 07:00 651.99 0.00 18.9 95.0 --
01/30/2019 06:00 651.99 0.00 18.4 96.0 --
01/30/2019 05:00 652.00 0.00 17.4 96.0 --
01/30/2019 04:00 652.00 0.00 16.3 96.0 --
01/30/2019 03:00 652.00 0.00 16.3 96.0 --
01/30/2019 02:00 652.01 0.00 15.8 95.0 --
01/30/2019 01:00 652.02 0.00 14.5 94.0 --
01/30/2019 00:00 652.01 0.00 14.0 94.0 --
01/29/2019 23:00 652.01 0.00 13.9 93.0 --
01/29/2019 22:00 652.01 0.00 13.9 93.0 --
01/29/2019 21:00 652.01 0.00 14.0 92.0 --
01/29/2019 20:00 652.02 0.00 14.9 90.0 --
01/29/2019 19:00 652.02 0.00 16.6 87.0 --
01/29/2019 18:00 652.04 0.00 16.9 87.0 --
01/29/2019 17:00 652.04 0.00 16.9 87.0 --
01/29/2019 16:00 652.04 0.00 17.2 81.0 --
01/29/2019 15:00 652.05 0.00 16.1 74.0 --
01/29/2019 14:00 652.06 0.00 15.0 75.0 --
01/29/2019 13:00 652.07 0.00 13.6 72.0 --
01/29/2019 12:00 652.07 0.00 13.6 72.0 --
01/29/2019 11:00 652.07 0.00 13.1 75.0 --
01/29/2019 10:00 652.10 0.00 10.7 76.0 --
01/29/2019 09:00 652.11 0.00 10.8 75.0 --
01/29/2019 08:00 652.12 0.00 11.3 67.0 --
01/29/2019 07:00 652.12 0.00 11.3 67.0 --
01/29/2019 06:00 652.12 0.00 11.5 66.0 --
01/29/2019 05:00 652.14 0.00 11.3 62.0 --
01/29/2019 04:00 652.14 0.00 11.5 66.0 --
01/29/2019 03:00 652.15 0.00 10.6 75.0 --
01/29/2019 02:00 652.15 0.00 10.6 75.0 --
01/29/2019 01:00 652.17 0.00 9.0 73.0 --
01/29/2019 00:00 652.18 0.00 11.2 71.0 --
01/28/2019 23:00 652.19 0.00 10.2 71.0 --
01/28/2019 22:00 652.20 0.00 11.4 69.0 --
01/28/2019 21:00 652.20 0.00 12.8 65.0 --
01/28/2019 20:00 652.21 0.00 14.0 63.0 --
01/28/2019 19:00 652.22 0.00 16.6 54.0 --
01/28/2019 18:00 652.23 0.00 20.3 38.0 --
01/28/2019 17:00 652.24 0.00 22.1 36.0 --
01/28/2019 16:00 652.24 0.00 22.1 36.0 --
01/28/2019 15:00 652.25 0.00 22.1 37.0 --
01/28/2019 14:00 652.27 0.00 20.6 40.0 --
01/28/2019 13:00 652.26 0.00 19.7 45.0 --
01/28/2019 12:00 652.30 0.00 17.5 52.0 --
01/28/2019 11:00 652.29 0.00 18.0 53.0 --
01/28/2019 10:00 652.30 0.00 17.2 54.0 --
01/28/2019 09:00 652.30 0.00 16.6 60.0 --
01/28/2019 08:00 652.33 0.00 15.7 67.0 --
01/28/2019 07:00 652.34 0.00 18.5 55.0 --
01/28/2019 06:00 652.36 0.00 20.0 54.0 --
01/28/2019 05:00 652.36 0.00 21.7 50.0 --
01/28/2019 04:00 652.38 0.00 24.3 58.0 --
01/28/2019 03:00 652.38 0.00 26.8 60.0 --
01/28/2019 02:00 652.38 0.00 29.5 57.0 --
01/28/2019 01:00 652.38 0.00 29.5 57.0 --
01/28/2019 00:00 652.40 0.00 31.6 63.0 --
01/27/2019 23:00 652.42 0.00 35.6 67.0 --
01/27/2019 22:00 652.44 0.00 38.3 62.0 --
01/27/2019 21:00 652.44 0.00 37.2 69.0 --
01/27/2019 20:00 652.45 0.00 38.7 63.0 --
01/27/2019 19:00 652.47 0.00 39.0 60.0 --
01/27/2019 18:00 652.47 0.00 38.5 65.0 --
01/27/2019 17:00 652.49 0.00 38.4 64.0 --
01/27/2019 16:00 652.50 0.00 37.4 64.0 --
01/27/2019 15:00 652.50 0.00 37.4 64.0 --
01/27/2019 14:00 652.51 0.00 33.9 65.0 --
01/27/2019 13:00 652.55 0.00 28.4 64.0 --
01/27/2019 12:00 652.56 0.00 29.0 52.0 --
01/27/2019 11:00 652.59 0.00 25.1 61.0 --
01/27/2019 10:00 652.59 0.00 14.0 83.0 --
01/27/2019 09:00 652.61 0.00 8.5 86.0 --
01/27/2019 08:00 652.62 0.00 6.9 87.0 --
01/27/2019 07:00 652.64 0.00 6.8 87.0 --
01/27/2019 06:00 652.66 0.00 7.2 87.0 --
01/27/2019 05:00 652.68 0.00 7.5 87.0 --
01/27/2019 04:00 652.69 0.00 8.3 88.0 --
01/27/2019 03:00 652.71 0.00 8.0 86.0 --
01/27/2019 02:00 652.71 0.00 10.2 88.0 --
01/27/2019 01:00 652.73 0.00 9.5 86.0 --
01/27/2019 00:00 652.74 0.00 12.1 84.0 --
01/26/2019 23:00 652.76 0.00 12.3 81.0 --
01/26/2019 22:00 652.78 0.00 14.7 76.0 --
01/26/2019 21:00 652.78 0.00 14.7 76.0 --
01/26/2019 20:00 652.78 0.00 16.6 71.0 --
01/26/2019 19:00 652.78 0.00 19.1 62.0 --
01/26/2019 18:00 652.80 0.00 22.3 49.0 --
01/26/2019 17:00 652.83 0.00 25.2 44.0 --
01/26/2019 16:00 652.84 0.00 25.0 43.0 --
01/26/2019 15:00 652.85 0.00 25.0 41.0 --
01/26/2019 14:00 652.86 0.00 23.2 44.0 --
01/26/2019 13:00 652.87 0.00 22.7 43.0 --
01/26/2019 12:00 652.89 0.00 21.7 44.0 --
01/26/2019 11:00 652.89 0.00 19.9 46.0 --
01/26/2019 10:00 652.91 0.00 17.1 71.0 --
01/26/2019 09:00 652.91 0.00 17.1 71.0 --
01/26/2019 08:00 652.91 0.00 12.4 79.0 --
01/26/2019 07:00 652.92 0.00 13.8 72.0 --
01/26/2019 06:00 652.92 0.00 13.8 72.0 --
01/26/2019 05:00 652.94 0.00 16.6 62.0 --
01/26/2019 04:00 652.95 0.00 17.1 62.0 --
01/26/2019 03:00 652.95 0.00 19.1 51.0 --
01/26/2019 02:00 652.95 0.00 19.4 51.0 --
01/26/2019 01:00 652.96 0.00 20.1 48.0 --
01/26/2019 00:00 652.96 0.00 21.5 43.0 --
01/25/2019 23:00 652.95 0.00 22.8 41.0 --
01/25/2019 22:00 652.93 0.00 24.2 49.0 --
01/25/2019 21:00 652.95 0.00 25.3 54.0 --
01/25/2019 20:00 652.95 0.00 25.3 54.0 --
01/25/2019 19:00 652.92 0.00 27.4 44.0 --
01/25/2019 18:00 652.92 0.00 28.7 49.0 --
01/25/2019 17:00 652.89 0.00 30.5 43.0 --
01/25/2019 16:00 652.83 0.00 32.1 38.0 --
01/25/2019 15:00 652.79 0.00 32.6 43.0 --
01/25/2019 14:00 652.76 0.00 31.5 50.0 --
01/25/2019 13:00 652.76 0.00 31.5 50.0 --
01/25/2019 12:00 652.69 0.00 31.2 59.0 --
01/25/2019 11:00 652.63 0.00 31.2 60.0 --
01/25/2019 10:00 652.63 0.00 31.2 60.0 --
01/25/2019 09:00 652.59 0.00 30.0 66.0 --
01/25/2019 08:00 652.50 0.00 29.5 64.0 --
01/25/2019 07:00 652.46 0.00 29.3 59.0 --
01/25/2019 06:00 652.42 0.00 29.8 59.0 --
01/25/2019 05:00 652.38 0.00 30.2 60.0 --
01/25/2019 04:00 652.38 0.00 30.2 60.0 --
01/25/2019 03:00 652.34 0.00 30.8 59.0 --
01/25/2019 02:00 652.27 0.00 31.7 61.0 --
01/25/2019 01:00 652.25 0.00 32.4 62.0 --
01/25/2019 00:00 652.11 0.00 35.4 77.0 --
01/24/2019 23:00 652.06 0.00 37.2 84.0 --
01/24/2019 22:00 651.98 0.00 38.5 86.0 --
01/24/2019 21:00 651.92 0.01 41.9 94.0 --
01/24/2019 20:00 651.86 0.04 43.1 100.0 --
01/24/2019 19:00 651.81 0.00 45.0 100.0 --
01/24/2019 18:00 651.81 0.06 45.0 100.0 --
01/24/2019 17:00 651.73 0.47 43.8 100.0 --
01/24/2019 16:00 651.61 0.14 48.3 100.0 --
01/24/2019 15:00 651.57 0.17 52.5 100.0 --
01/24/2019 14:00 651.54 0.14 51.9 100.0 --
01/24/2019 13:00 651.52 0.07 51.8 100.0 --
01/24/2019 12:00 651.50 0.00 49.4 100.0 --
01/24/2019 11:00 651.50 0.07 49.4 100.0 --
01/24/2019 10:00 651.48 0.10 45.7 100.0 --
01/24/2019 09:00 651.48 0.00 50.7 100.0 --
01/24/2019 08:00 651.48 0.01 50.9 100.0 --
01/24/2019 07:00 651.48 0.01 44.7 100.0 --
01/24/2019 06:00 651.46 0.00 44.9 100.0 --
01/24/2019 05:00 651.46 0.03 44.3 100.0 --
01/24/2019 04:00 651.47 0.09 42.7 100.0 --
01/24/2019 03:00 651.47 0.28 41.7 100.0 --
01/24/2019 02:00 651.44 0.20 41.7 91.0 --
01/24/2019 01:00 651.45 0.02 40.0 84.0 --
01/24/2019 00:00 651.46 0.00 34.8 95.0 --
01/23/2019 23:00 651.45 0.00 35.9 91.0 --
01/23/2019 22:00 651.45 0.00 35.9 91.0 --
01/23/2019 21:00 651.46 0.00 36.4 85.0 --
01/23/2019 20:00 651.45 0.01 36.3 76.0 --
01/23/2019 19:00 651.47 0.00 36.0 74.0 --
01/23/2019 18:00 651.47 0.00 36.1 71.0 --
01/23/2019 17:00 651.47 0.00 37.1 65.0 --
01/23/2019 16:00 651.46 0.00 36.7 55.0 --
01/23/2019 15:00 651.45 0.00 35.4 49.0 --
01/23/2019 14:00 651.46 0.00 33.2 48.0 --
01/23/2019 13:00 651.44 0.00 31.4 44.0 --
01/23/2019 12:00 651.44 0.00 31.4 44.0 --
01/23/2019 11:00 651.46 0.00 29.0 44.0 --
01/23/2019 10:00 651.47 0.00 26.2 42.0 --
01/23/2019 09:00 651.47 0.00 26.2 42.0 --
01/23/2019 08:00 651.47 0.00 24.9 45.0 --
01/23/2019 07:00 651.46 0.00 23.3 47.0 --
01/23/2019 06:00 651.47 0.00 22.0 41.0 --
01/23/2019 05:00 651.47 0.00 12.5 62.0 --
01/23/2019 04:00 651.46 0.00 10.6 61.0 --
01/23/2019 03:00 651.47 0.00 10.7 62.0 --
01/23/2019 02:00 651.47 0.00 11.1 61.0 --
01/23/2019 01:00 651.47 0.00 13.4 57.0 --
01/23/2019 00:00 651.47 0.00 14.3 49.0 --
01/22/2019 23:00 651.47 0.00 15.3 45.0 --
01/22/2019 22:00 651.48 0.00 13.8 50.0 --
01/22/2019 21:00 651.47 0.00 13.4 57.0 --
01/22/2019 20:00 651.47 0.00 11.0 57.0 --
01/22/2019 19:00 651.47 0.00 13.1 50.0 --
01/22/2019 18:00 651.47 0.00 17.9 31.0 --
01/22/2019 17:00 651.48 0.00 21.6 22.0 --
01/22/2019 16:00 651.48 0.00 21.6 22.0 --
01/22/2019 15:00 651.49 0.00 22.0 19.0 --
01/22/2019 14:00 651.50 0.00 18.2 20.0 --
01/22/2019 13:00 651.48 0.00 16.0 23.0 --
01/22/2019 12:00 651.50 0.00 13.6 25.0 --
01/22/2019 11:00 651.49 0.00 10.9 30.0 --
01/22/2019 10:00 651.50 0.00 6.4 39.0 --
01/22/2019 09:00 651.50 0.00 2.8 47.0 --
01/22/2019 08:00 651.51 0.00 2.9 47.0 --
01/22/2019 07:00 651.49 0.00 2.2 48.0 --
01/22/2019 06:00 651.52 0.02 1.8 48.0 --
01/22/2019 05:00 651.52 0.00 2.2 47.0 --
01/22/2019 04:00 651.49 0.00 2.4 45.0 --
01/22/2019 03:00 651.49 0.00 2.4 45.0 --
01/22/2019 02:00 651.48 0.00 2.3 46.0 --
01/22/2019 01:00 651.49 0.00 2.2 44.0 --
01/22/2019 00:00 651.53 0.00 1.7 45.0 --
01/21/2019 23:00 -- -- -- -- --
01/21/2019 22:00 -- -- -- -- --
01/21/2019 21:00 -- -- -- -- --
01/21/2019 20:00 -- -- -- -- --
01/21/2019 19:00 -- -- -- -- --